.
WxDataArchive / Data Records for 2013-10-07
2013-10-06 October 2013 2013-10-08

Data Records for Monday, 07 October 2013

Time	Temp	Chill	HIndex	Humid	Dewpt	 Wind 	HiWind	WindDir	Rain 	Barom 
-----	----	-----	------	-----	-----	------	------	-------	-----	----- 
00:00	49.6	49.6	49.6	70	40.2	0	2	270	0.00	29.777 
00:05	49.5	49.5	49.5	70	40.1	0	2	315	0.00	29.777 
00:10	49.4	49.4	49.4	70	40.0	0	1	315	0.00	29.777 
00:15	49.2	49.2	49.2	71	40.2	0	1	315	0.00	29.776 
00:20	49.1	49.1	49.1	71	40.1	0	3	315	0.00	29.776 
00:25	48.9	48.9	48.9	72	40.3	0	1	292	0.00	29.776 
00:30	48.8	48.8	48.8	72	40.2	0	2	292	0.00	29.775 
00:35	48.6	48.6	48.6	73	40.3	0	1	292	0.00	29.775 
00:40	48.6	48.6	48.6	73	40.3	0	3	270	0.00	29.775 
00:45	48.5	48.5	48.5	73	40.2	0	1	270	0.00	29.777 
00:50	48.3	48.3	48.3	73	40.1	0	1	270	0.00	29.777 
00:55	48.2	48.2	48.2	74	40.3	0	1	270	0.00	29.777 
01:00	48.0	48.0	48.0	74	40.1	0	1	270	0.00	29.775 
01:05	47.9	47.9	47.9	75	40.4	0	1	270	0.00	29.775 
01:10	47.7	47.7	47.7	75	40.2	0	1	270	0.00	29.775 
01:15	47.6	47.6	47.6	75	40.1	0	1	270	0.00	29.780 
01:20	47.6	47.6	47.6	75	40.1	0	1	270	0.00	29.780 
01:25	47.4	47.4	47.4	75	39.9	0	0	---	0.00	29.780 
01:30	47.3	47.3	47.3	75	39.8	0	0	---	0.00	29.780 
01:35	47.1	47.1	47.1	76	39.9	0	1	270	0.00	29.780 
01:40	47.0	47.0	47.0	77	40.2	0	0	---	0.00	29.780 
01:45	46.8	46.8	46.8	77	40.0	0	0	---	0.00	29.782 
01:50	46.5	46.5	46.5	77	39.7	0	0	---	0.00	29.782 
01:55	46.4	46.4	46.4	78	39.9	0	1	270	0.00	29.782 
02:00	46.2	46.2	46.2	78	39.7	0	0	---	0.00	29.782 
02:05	46.2	46.2	46.2	79	40.1	0	0	---	0.00	29.782 
02:10	46.2	46.2	46.2	79	40.1	0	1	270	0.00	29.782 
02:15	46.1	46.1	46.1	80	40.3	0	0	---	0.00	29.788 
02:20	46.0	46.0	46.0	80	40.2	0	0	---	0.00	29.788 
02:25	46.0	46.0	46.0	80	40.2	0	1	270	0.00	29.788 
02:30	45.8	45.8	45.8	81	40.3	0	0	---	0.00	29.787 
02:35	45.8	45.8	45.8	81	40.3	0	1	270	0.00	29.787 
02:40	45.8	45.8	45.8	81	40.3	0	0	---	0.00	29.787 
02:45	45.7	45.7	45.7	81	40.2	0	0	---	0.00	29.792 
02:50	45.5	45.5	45.5	82	40.3	0	1	270	0.00	29.792 
02:55	45.4	45.4	45.4	82	40.2	0	0	---	0.00	29.792 
03:00	45.4	45.4	45.4	82	40.2	0	0	---	0.00	29.790 
03:05	45.2	45.2	45.2	82	40.0	0	0	---	0.00	29.790 
03:10	45.2	45.2	45.2	82	40.0	0	0	---	0.00	29.790 
03:15	45.1	45.1	45.1	83	40.3	0	1	270	0.00	29.793 
03:20	45.1	45.1	45.1	83	40.3	0	0	---	0.00	29.793 
03:25	44.9	44.9	44.9	83	40.1	0	1	270	0.00	29.793 
03:30	44.9	44.9	44.9	83	40.1	0	0	---	0.00	29.786 
03:35	44.9	44.9	44.9	83	40.1	0	0	---	0.00	29.786 
03:40	44.8	44.8	44.8	83	40.0	0	1	270	0.00	29.786 
03:45	44.6	44.6	44.6	84	40.1	0	0	---	0.00	29.781 
03:50	44.6	44.6	44.6	84	40.1	0	1	270	0.00	29.781 
03:55	44.6	44.6	44.6	84	40.1	0	1	270	0.00	29.781 
04:00	44.8	44.8	44.8	84	40.3	0	1	270	0.00	29.773 
04:05	44.8	44.8	44.8	84	40.3	0	1	270	0.00	29.773 
04:10	44.8	44.8	44.8	84	40.3	0	1	270	0.00	29.773 
04:15	44.8	44.8	44.8	84	40.3	0	0	---	0.00	29.773 
04:20	44.6	44.6	44.6	84	40.1	0	1	270	0.00	29.773 
04:25	44.6	44.6	44.6	85	40.4	0	1	270	0.00	29.773 
04:30	44.6	44.6	44.6	85	40.4	0	1	270	0.00	29.777 
04:35	44.5	44.5	44.5	85	40.3	0	1	270	0.00	29.777 
04:40	44.5	44.5	44.5	85	40.3	0	0	---	0.00	29.777 
04:45	44.5	44.5	44.5	86	40.6	0	1	270	0.00	29.782 
04:50	44.3	44.3	44.3	86	40.4	0	0	---	0.00	29.782 
04:55	44.3	44.3	44.3	86	40.4	0	0	---	0.00	29.782 
05:00	44.3	44.3	44.3	86	40.4	0	1	270	0.00	29.785 
05:05	44.2	44.2	44.2	86	40.3	0	1	270	0.00	29.785 
05:10	44.2	44.2	44.2	87	40.6	0	1	270	0.00	29.785 
05:15	44.2	44.2	44.2	87	40.6	0	1	292	0.00	29.802 
05:20	44.2	44.2	44.2	87	40.6	0	1	292	0.00	29.802 
05:25	44.3	44.3	44.3	87	40.7	0	2	292	0.00	29.802 
05:30	44.5	44.5	44.5	87	40.9	0	1	292	0.00	29.798 
05:35	44.6	44.6	44.6	87	41.0	0	1	292	0.00	29.798 
05:40	44.8	44.8	44.8	87	41.2	0	1	292	0.00	29.798 
05:45	44.9	44.9	44.9	87	41.3	0	2	292	0.00	29.803 
05:50	45.1	45.1	45.1	87	41.5	0	1	292	0.00	29.803 
05:55	45.2	45.2	45.2	87	41.6	0	2	292	0.00	29.803 
06:00	45.4	45.4	45.4	87	41.8	0	1	292	0.00	29.804 
06:05	45.4	45.4	45.4	87	41.8	0	1	292	0.00	29.804 
06:10	45.4	45.4	45.4	87	41.8	0	1	292	0.00	29.804 
06:15	45.4	45.4	45.4	87	41.8	0	1	292	0.00	29.801 
06:20	45.5	45.5	45.5	87	41.9	0	0	---	0.00	29.801 
06:25	45.5	45.5	45.5	87	41.9	0	1	292	0.00	29.801 
06:30	45.5	45.5	45.5	87	41.9	0	1	292	0.00	29.799 
06:35	45.7	45.7	45.7	87	42.1	0	1	292	0.00	29.799 
06:40	45.8	45.8	45.8	86	41.9	0	1	292	0.00	29.799 
06:45	45.8	45.8	45.8	86	41.9	0	2	292	0.00	29.801 
06:50	46.0	46.0	46.0	86	42.0	0	1	292	0.00	29.801 
06:55	46.0	46.0	46.0	86	42.0	0	1	270	0.00	29.801 
07:00	46.0	46.0	46.0	86	42.0	0	1	270	0.00	29.802 
07:05	46.1	46.1	46.1	86	42.1	0	1	270	0.00	29.802 
07:10	46.1	46.1	46.1	86	42.1	0	1	270	0.00	29.802 
07:15	46.1	46.1	46.1	86	42.1	0	2	270	0.00	29.804 
07:20	46.1	46.1	46.1	85	41.8	0	1	270	0.00	29.804 
07:25	46.1	46.1	46.1	85	41.8	0	2	270	0.00	29.804 
07:30	46.2	46.2	46.2	85	41.9	0	1	270	0.00	29.815 
07:35	46.2	46.2	46.2	85	41.9	0	3	270	0.00	29.815 
07:40	46.2	46.2	46.2	85	41.9	0	2	270	0.00	29.815 
07:45	46.2	46.2	46.2	85	41.9	1	3	270	0.00	29.818 
07:50	46.2	46.2	46.2	85	41.9	0	2	270	0.00	29.818 
07:55	46.2	46.2	46.2	85	41.9	1	3	248	0.00	29.818 
08:00	46.2	46.2	46.2	85	41.9	1	5	248	0.00	29.825 
08:05	46.4	46.4	46.4	85	42.1	1	6	292	0.00	29.825 
08:10	46.2	46.2	46.2	85	41.9	1	3	292	0.00	29.825 
08:15	46.2	46.2	46.2	85	41.9	0	2	292	0.00	29.832 
08:20	46.2	46.2	46.2	85	41.9	1	3	292	0.00	29.832 
08:25	46.1	46.1	46.1	85	41.8	1	4	292	0.00	29.832 
08:30	46.0	46.0	46.0	85	41.7	1	4	292	0.00	29.844 
08:35	46.0	46.0	46.0	85	41.7	1	3	292	0.00	29.844 
08:40	46.0	46.0	46.0	85	41.7	0	2	292	0.00	29.844 
08:45	46.0	46.0	46.0	86	42.0	0	2	292	0.00	29.838 
08:50	46.1	46.1	46.1	86	42.1	0	2	292	0.00	29.838 
08:55	46.2	46.2	46.2	86	42.2	0	1	292	0.00	29.838 
09:00	46.4	46.4	46.4	85	42.1	0	2	292	0.00	29.838 
09:05	46.7	46.7	46.7	85	42.4	0	2	292	0.00	29.838 
09:10	46.8	46.8	46.8	84	42.2	1	3	292	0.00	29.838 
09:15	47.1	47.1	47.1	84	42.5	1	3	292	0.00	29.848 
09:20	47.4	47.4	47.4	83	42.5	1	4	270	0.00	29.848 
09:25	47.6	47.6	47.6	81	42.1	0	3	270	0.00	29.848 
09:30	47.7	47.7	47.7	80	41.8	2	4	292	0.00	29.853 
09:35	48.0	48.0	48.0	80	42.1	1	5	292	0.00	29.853 
09:40	48.0	48.0	48.0	78	41.5	1	5	270	0.00	29.853 
09:45	48.2	48.2	48.2	78	41.7	1	5	270	0.00	29.859 
09:50	48.5	48.5	48.5	78	42.0	0	3	270	0.00	29.859 
09:55	48.6	48.6	48.6	77	41.7	1	6	270	0.00	29.859 
10:00	48.9	48.9	48.9	77	42.0	1	3	270	0.00	29.868 
10:05	49.2	49.2	49.2	77	42.3	1	4	270	0.00	29.868 
10:10	49.4	49.4	49.4	77	42.5	2	6	270	0.00	29.868 
10:15	49.5	49.5	49.5	76	42.3	1	3	292	0.00	29.876 
10:20	49.8	49.8	49.8	74	41.9	1	5	270	0.00	29.876 
10:25	50.1	50.1	50.1	73	41.8	2	5	270	0.00	29.876 
10:30	50.4	50.4	50.4	73	42.1	1	5	270	0.00	29.875 
10:35	50.7	50.7	50.7	72	42.0	2	7	292	0.00	29.875 
10:40	50.5	50.5	50.5	71	41.5	2	6	270	0.00	29.875 
10:45	50.8	50.8	50.8	72	42.1	2	6	270	0.00	29.876 
10:50	51.3	51.3	51.3	72	42.6	1	5	270	0.00	29.876 
10:55	51.4	51.4	51.4	70	41.9	3	7	270	0.00	29.876 
11:00	51.4	51.4	51.4	71	42.3	2	5	270	0.00	29.879 
11:05	51.7	51.7	51.7	70	42.2	2	6	270	0.00	29.879 
11:10	52.2	52.2	52.2	70	42.7	2	4	270	0.00	29.879 
11:15	52.5	52.5	52.5	68	42.2	1	4	270	0.00	29.883 
11:20	52.6	52.6	52.6	67	42.0	1	5	248	0.00	29.883 
11:25	52.8	52.8	52.8	67	42.1	2	4	270	0.00	29.883 
11:30	52.9	52.9	52.9	67	42.2	2	5	270	0.00	29.891 
11:35	53.2	53.2	53.2	67	42.5	1	4	315	0.00	29.891 
11:40	53.6	53.6	53.6	67	42.9	1	3	248	0.00	29.891 
11:45	53.9	53.9	53.9	66	42.8	2	4	270	0.00	29.893 
11:50	53.8	53.8	53.8	66	42.7	2	6	270	0.00	29.893 
11:55	53.9	53.9	53.9	65	42.4	3	6	270	0.00	29.893 
12:00	53.9	53.9	53.9	65	42.4	2	5	270	0.00	29.895 
12:05	54.4	54.4	54.4	65	42.9	1	5	270	0.00	29.895 
12:10	54.1	54.1	54.1	65	42.6	2	4	270	0.00	29.895 
12:15	54.1	54.1	54.1	65	42.6	2	6	270	0.00	29.906 
12:20	54.7	54.7	54.7	65	43.2	1	5	270	0.00	29.906 
12:25	55.3	55.3	55.3	63	42.9	3	6	270	0.00	29.906 
12:30	55.9	55.9	55.9	62	43.1	1	4	270	0.00	29.905 
12:35	56.3	56.3	56.3	61	43.0	3	7	270	0.00	29.905 
12:40	56.7	56.7	56.7	61	43.4	2	5	270	0.00	29.905 
12:45	57.2	57.2	57.2	61	43.9	2	5	270	0.00	29.906 
12:50	57.5	57.5	57.5	59	43.3	1	5	248	0.00	29.906 
12:55	57.5	57.5	57.5	58	42.8	2	5	270	0.00	29.906 
13:00	58.0	58.0	58.0	61	44.6	1	3	270	0.00	29.908 
13:05	58.3	58.3	58.3	57	43.1	2	5	292	0.00	29.908 
13:10	58.1	58.1	58.1	56	42.5	3	9	292	0.00	29.908 
13:15	57.2	57.2	57.2	56	41.6	4	7	270	0.00	29.913 
13:20	56.9	56.9	56.9	58	42.3	4	7	270	0.00	29.913 
13:25	57.5	57.5	57.5	59	43.3	2	5	270	0.00	29.913 
13:30	57.8	57.8	57.8	58	43.1	2	4	270	0.00	29.921 
13:35	58.0	58.0	58.0	59	43.8	2	5	270	0.00	29.921 
13:40	58.3	58.3	58.3	58	43.6	3	6	270	0.00	29.921 
13:45	58.0	58.0	58.0	56	42.4	4	9	270	0.00	29.922 
13:50	57.3	57.3	57.3	58	42.6	3	9	270	0.00	29.922 
13:55	57.2	57.2	57.2	59	43.0	3	9	270	0.00	29.922 
14:00	57.2	57.2	57.2	58	42.6	2	6	270	0.00	29.923 
14:05	57.2	57.2	57.2	60	43.4	1	4	270	0.00	29.923 
14:10	57.3	57.3	57.3	61	44.0	2	6	292	0.00	29.923 
14:15	57.6	57.6	57.6	60	43.8	1	3	270	0.00	29.924 
14:20	57.6	57.6	57.6	60	43.8	1	5	270	0.00	29.924 
14:25	57.6	57.6	57.6	61	44.2	3	10	270	0.00	29.924 
14:30	57.3	57.3	57.3	61	44.0	4	10	270	0.00	29.927 
14:35	57.3	57.3	57.3	62	44.4	3	7	270	0.00	29.927 
14:40	57.2	57.2	57.2	63	44.7	2	6	270	0.00	29.927 
14:45	57.2	57.2	57.2	64	45.1	2	4	270	0.00	29.931 
14:50	57.3	57.3	57.3	65	45.6	3	7	270	0.00	29.931 
14:55	57.2	57.2	57.2	63	44.7	3	6	270	0.00	29.931 
15:00	56.9	56.9	56.9	65	45.3	2	6	270	0.00	29.939 
15:05	56.7	56.7	56.7	66	45.5	2	5	270	0.00	29.939 
15:10	56.7	56.7	56.7	66	45.5	2	5	270	0.00	29.939 
15:15	56.5	56.5	56.5	67	45.7	3	6	270	0.00	29.942 
15:20	56.9	56.9	56.9	68	46.4	2	6	270	0.00	29.942 
15:25	57.3	57.3	57.3	67	46.4	3	9	270	0.00	29.942 
15:30	57.2	57.2	57.2	67	46.3	2	6	270	0.00	29.953 
15:35	57.3	57.3	57.3	67	46.4	1	4	270	0.00	29.953 
15:40	57.2	57.2	57.2	66	45.9	3	6	270	0.00	29.953 
15:45	57.0	57.0	57.0	67	46.2	2	5	270	0.00	29.962 
15:50	56.9	56.9	56.9	67	46.1	3	9	292	0.00	29.962 
15:55	57.0	57.0	57.0	67	46.2	3	6	270	0.00	29.962 
16:00	57.2	57.2	57.2	66	45.9	3	7	270	0.00	29.965 
16:05	57.2	57.2	57.2	66	45.9	3	6	270	0.00	29.965 
16:10	57.2	57.2	57.2	65	45.5	2	6	270	0.00	29.965 
16:15	57.2	57.2	57.2	66	45.9	3	6	270	0.00	29.973 
16:20	57.2	57.2	57.2	66	45.9	2	5	270	0.00	29.973 
16:25	57.5	57.5	57.5	66	46.2	1	5	270	0.00	29.973 
16:30	57.6	57.6	57.6	66	46.3	1	4	292	0.00	29.974 
16:35	57.2	57.2	57.2	66	45.9	2	5	270	0.00	29.974 
16:40	57.2	57.2	57.2	66	45.9	1	5	270	0.00	29.974 
16:45	57.5	57.5	57.5	66	46.2	2	5	270	0.00	29.975 
16:50	57.8	57.8	57.8	65	46.1	2	5	292	0.00	29.975 
16:55	58.0	58.0	58.0	65	46.3	2	6	270	0.00	29.975 
17:00	58.1	58.1	58.1	64	46.0	1	4	292	0.00	29.981 
17:05	58.0	58.0	58.0	62	45.1	2	7	292	0.00	29.981 
17:10	57.8	57.8	57.8	62	44.9	1	5	315	0.00	29.981 
17:15	58.1	58.1	58.1	63	45.6	2	7	270	0.00	29.982 
17:20	58.3	58.3	58.3	62	45.3	2	5	292	0.00	29.982 
17:25	58.3	58.3	58.3	62	45.3	1	3	292	0.00	29.982 
17:30	58.4	58.4	58.4	63	45.9	0	2	292	0.00	29.987 
17:35	58.6	58.6	58.6	62	45.6	1	3	292	0.00	29.987 
17:40	58.7	58.7	58.7	62	45.7	1	4	270	0.00	29.987 
17:45	58.7	58.7	58.7	62	45.7	1	4	292	0.00	29.987 
17:50	58.7	58.7	58.7	59	44.4	2	5	270	0.00	29.987 
17:55	58.6	58.6	58.6	59	44.3	2	4	270	0.00	29.987 
18:00	58.4	58.4	58.4	60	44.6	1	4	270	0.00	29.996 
18:05	58.3	58.3	58.3	60	44.5	1	4	270	0.00	29.996 
18:10	58.3	58.3	58.3	61	44.9	1	3	270	0.00	29.996 
18:15	58.3	58.3	58.3	61	44.9	0	1	270	0.00	30.001 
18:20	58.3	58.3	58.3	62	45.3	0	1	270	0.00	30.001 
18:25	58.3	58.3	58.3	62	45.3	0	2	270	0.00	30.001 
18:30	58.3	58.3	58.3	60	44.5	1	3	270	0.00	30.002 
18:35	58.3	58.3	58.3	61	44.9	0	2	270	0.00	30.002 
18:40	58.1	58.1	58.1	61	44.7	0	2	270	0.00	30.002 
18:45	58.0	58.0	58.0	60	44.2	1	3	270	0.00	30.009 
18:50	57.8	57.8	57.8	60	44.0	1	3	270	0.00	30.009 
18:55	57.6	57.6	57.6	60	43.8	0	3	270	0.00	30.009 
19:00	57.5	57.5	57.5	60	43.7	0	1	270	0.00	30.018 
19:05	57.2	57.2	57.2	61	43.9	0	1	270	0.00	30.018 
19:10	57.0	57.0	57.0	62	44.1	0	1	270	0.00	30.018 
19:15	56.7	56.7	56.7	62	43.8	0	0	---	0.00	30.033 
19:20	56.3	56.3	56.3	63	43.9	0	0	---	0.00	30.033 
19:25	55.9	55.9	55.9	64	43.9	0	0	---	0.00	30.033 
19:30	55.4	55.4	55.4	65	43.8	0	0	---	0.00	30.038 
19:35	55.0	55.0	55.0	66	43.9	0	0	---	0.00	30.038 
19:40	54.5	54.5	54.5	67	43.8	0	0	---	0.00	30.038 
19:45	54.1	54.1	54.1	69	44.2	0	0	---	0.00	30.045 
19:50	53.6	53.6	53.6	70	44.1	0	0	---	0.00	30.045 
19:55	53.2	53.2	53.2	71	44.0	0	0	---	0.00	30.045 
20:00	52.9	52.9	52.9	72	44.1	0	0	---	0.00	30.054 
20:05	52.6	52.6	52.6	73	44.2	0	0	---	0.00	30.054 
20:10	52.3	52.3	52.3	73	43.9	0	0	---	0.00	30.054 
20:15	52.0	52.0	52.0	75	44.3	0	0	---	0.00	30.060 
20:20	51.7	51.7	51.7	76	44.4	0	0	---	0.00	30.060 
20:25	51.4	51.4	51.4	77	44.4	0	0	---	0.00	30.060 
20:30	51.1	51.1	51.1	78	44.5	0	0	---	0.00	30.071 
20:35	50.7	50.7	50.7	78	44.1	0	0	---	0.00	30.071 
20:40	50.4	50.4	50.4	80	44.5	0	0	---	0.00	30.071 
20:45	50.1	50.1	50.1	80	44.2	0	0	---	0.00	30.075 
20:50	49.8	49.8	49.8	81	44.2	0	0	---	0.00	30.075 
20:55	49.4	49.4	49.4	81	43.8	0	0	---	0.00	30.075 
21:00	49.1	49.1	49.1	82	43.8	0	0	---	0.00	30.088 
21:05	48.8	48.8	48.8	82	43.6	0	0	---	0.00	30.088 
21:10	48.3	48.3	48.3	83	43.4	0	0	---	0.00	30.088 
21:15	48.2	48.2	48.2	84	43.6	0	0	---	0.00	30.088 
21:20	47.9	47.9	47.9	85	43.6	0	0	---	0.00	30.088 
21:25	47.7	47.7	47.7	85	43.4	0	0	---	0.00	30.088 
21:30	47.7	47.7	47.7	86	43.7	0	0	---	0.00	30.095 
21:35	47.6	47.6	47.6	86	43.6	0	0	---	0.00	30.095 
21:40	47.4	47.4	47.4	86	43.4	0	0	---	0.00	30.095 
21:45	47.3	47.3	47.3	87	43.6	0	0	---	0.00	30.104 
21:50	47.1	47.1	47.1	87	43.4	0	0	---	0.00	30.104 
21:55	47.0	47.0	47.0	87	43.3	0	0	---	0.00	30.104 
22:00	46.7	46.7	46.7	88	43.3	0	0	---	0.00	30.109 
22:05	46.4	46.4	46.4	88	43.0	0	0	---	0.00	30.109 
22:10	46.2	46.2	46.2	88	42.8	0	0	---	0.00	30.109 
22:15	46.1	46.1	46.1	88	42.7	0	0	---	0.00	30.110 
22:20	45.8	45.8	45.8	88	42.5	0	0	---	0.00	30.110 
22:25	45.7	45.7	45.7	89	42.6	0	0	---	0.00	30.110 
22:30	45.5	45.5	45.5	89	42.4	0	0	---	0.00	30.119 
22:35	45.4	45.4	45.4	89	42.3	0	0	---	0.00	30.119 
22:40	45.2	45.2	45.2	89	42.2	0	0	---	0.00	30.119 
22:45	45.1	45.1	45.1	90	42.3	0	0	---	0.00	30.121 
22:50	45.1	45.1	45.1	90	42.3	0	0	---	0.00	30.121 
22:55	44.9	44.9	44.9	90	42.1	0	0	---	0.00	30.121 
23:00	45.1	45.1	45.1	90	42.3	0	0	---	0.00	30.129 
23:05	44.9	44.9	44.9	91	42.4	0	0	---	0.00	30.129 
23:10	44.9	44.9	44.9	91	42.4	0	0	---	0.00	30.129 
23:15	44.8	44.8	44.8	91	42.3	0	0	---	0.00	30.131 
23:20	44.5	44.5	44.5	91	42.0	0	0	---	0.00	30.131 
23:25	44.3	44.3	44.3	91	41.8	0	0	---	0.00	30.131 
23:30	44.3	44.3	44.3	91	41.8	0	0	---	0.00	30.133 
23:35	44.2	44.2	44.2	91	41.7	0	0	---	0.00	30.133 
23:40	44.2	44.2	44.2	91	41.7	0	0	---	0.00	30.133 
23:45	44.1	44.1	44.1	91	41.6	0	0	---	0.00	30.138 
23:50	43.9	43.9	43.9	92	41.7	0	0	---	0.00	30.138 
23:55	43.9	43.9	43.9	92	41.7	0	0	---	0.00	30.138 

CoCoRaHS
IN-AL-39
A2 Web Hosting
Creative Commons License
GoDaddy
search engine by freefind advanced

loaded 2018-11-17 05:51:53 • last modified 2010-11-18 10:43:29
Privacy PolicyDisclaimer
• wx.awcolley.com is powered by PmWiki v.2002016 •
• all content (unless otherwise noted) © 2018 A W Colley